Time;durP1;ratioP1;P1;durP2;ratioP2;P2;SDS_P1;SDS_P2;PMS_P1;PMS_P2;Temp;Humidity;BMP_temperature;BMP_pressure;BME280_temperature;BME280_humidity;BME280_pressure;Samples;Min_cycle;Max_cycle;Signal;HPM_P1;HPM_P2
2023/10/25 00:02:07;;;;;;;2.45;0.73;;;8.80;99.90;;;;;;5023978;28;20029;-87
2023/10/25 00:04:33;;;;;;;2.55;0.90;;;8.80;99.90;;;;;;5026841;28;20333;-90
2023/10/25 00:06:59;;;;;;;2.33;0.90;;;8.70;99.90;;;;;;5022864;28;20032;-87
2023/10/25 00:09:24;;;;;;;1.52;0.85;;;8.70;99.90;;;;;;5011401;28;20498;-86
2023/10/25 00:11:50;;;;;;;2.75;0.90;;;8.70;99.90;;;;;;5006403;28;20033;-89
2023/10/25 00:14:16;;;;;;;2.45;0.90;;;8.70;99.90;;;;;;5009504;28;20064;-87
2023/10/25 00:16:41;;;;;;;2.40;1.05;;;8.70;99.90;;;;;;5010719;28;20022;-89
2023/10/25 00:19:07;;;;;;;2.22;0.80;;;8.60;99.90;;;;;;5011205;28;20112;-87
2023/10/25 00:21:33;;;;;;;1.60;0.68;;;8.70;99.90;;;;;;5023730;28;20031;-88
2023/10/25 00:23:59;;;;;;;2.55;0.90;;;8.60;99.90;;;;;;5024009;28;20043;-86
2023/10/25 00:26:24;;;;;;;2.20;0.80;;;8.60;99.90;;;;;;5024905;28;20479;-86
2023/10/25 00:28:51;;;;;;;3.35;0.80;;;8.60;99.90;;;;;;5024908;28;20024;-87
2023/10/25 00:31:18;;;;;;;1.52;0.88;;;8.50;99.90;;;;;;5024025;28;20113;-87
2023/10/25 00:33:43;;;;;;;2.33;0.80;;;8.60;99.90;;;;;;5038494;28;20125;-87
2023/10/25 00:36:09;;;;;;;2.67;0.70;;;8.60;99.90;;;;;;5010343;28;20021;-89
2023/10/25 00:38:35;;;;;;;1.52;0.80;;;8.50;99.90;;;;;;5034564;28;20048;-88
2023/10/25 00:41:00;;;;;;;1.35;0.60;;;8.50;99.90;;;;;;5031484;28;20028;-88
2023/10/25 00:43:27;;;;;;;1.88;0.52;;;8.50;99.90;;;;;;5020744;28;20076;-87
2023/10/25 00:45:59;;;;;;;3.13;0.50;;;8.50;99.90;;;;;;5005804;28;20038;-86
2023/10/25 00:48:25;;;;;;;1.50;0.40;;;8.50;99.90;;;;;;5024134;28;20029;-87
2023/10/25 00:50:52;;;;;;;3.55;0.40;;;8.50;99.90;;;;;;5039903;28;20477;-86
2023/10/25 00:53:18;;;;;;;2.03;0.30;;;8.50;99.90;;;;;;5039502;28;20033;-87
2023/10/25 00:55:44;;;;;;;1.23;0.30;;;8.40;99.90;;;;;;5026494;28;20033;-86
2023/10/25 00:58:10;;;;;;;1.45;0.30;;;8.40;99.90;;;;;;5040327;28;20486;-86
2023/10/25 01:00:36;;;;;;;1.42;0.30;;;8.40;99.90;;;;;;5027192;28;20021;-86
2023/10/25 01:03:06;;;;;;;1.33;0.30;;;8.30;99.90;;;;;;5030167;28;20505;-86
2023/10/25 01:05:32;;;;;;;2.00;0.30;;;8.30;99.90;;;;;;5025314;28;20040;-86
2023/10/25 01:07:59;;;;;;;1.33;0.40;;;8.30;99.90;;;;;;5025641;28;20025;-87
2023/10/25 01:10:25;;;;;;;1.23;0.30;;;8.30;99.90;;;;;;5022802;28;20496;-86
2023/10/25 01:12:51;;;;;;;1.17;0.30;;;8.30;99.90;;;;;;5006986;28;20039;-86
2023/10/25 01:15:22;;;;;;;0.75;0.30;;;8.30;99.90;;;;;;5010061;28;20722;-90
2023/10/25 01:17:48;;;;;;;0.90;0.30;;;8.30;99.90;;;;;;5004102;28;20026;-87
2023/10/25 01:20:13;;;;;;;1.27;0.22;;;8.30;99.90;;;;;;5027039;28;20128;-89
2023/10/25 01:22:39;;;;;;;1.17;0.30;;;8.30;99.90;;;;;;5011153;28;20030;-86
2023/10/25 01:25:05;;;;;;;0.90;0.32;;;8.30;99.90;;;;;;5022019;28;20080;-87
2023/10/25 01:27:31;;;;;;;1.02;0.30;;;8.30;99.90;;;;;;5005022;28;20029;-87
2023/10/25 01:29:57;;;;;;;1.80;0.30;;;8.30;99.90;;;;;;5007288;28;20079;-86
2023/10/25 01:32:23;;;;;;;2.35;0.40;;;8.30;99.90;;;;;;5039455;28;20021;-90
2023/10/25 01:34:48;;;;;;;1.55;0.30;;;8.30;99.90;;;;;;5022149;28;20091;-86
2023/10/25 01:37:14;;;;;;;2.35;0.30;;;8.30;99.90;;;;;;5009674;28;20164;-86
2023/10/25 01:39:39;;;;;;;2.03;0.50;;;8.30;99.90;;;;;;5008230;28;20485;-90
2023/10/25 01:42:06;;;;;;;2.90;0.30;;;8.40;99.90;;;;;;5025555;28;20029;-90
2023/10/25 01:44:32;;;;;;;1.45;0.38;;;8.40;99.90;;;;;;5024587;28;20049;-86
2023/10/25 01:46:58;;;;;;;0.85;0.30;;;8.40;99.90;;;;;;5023823;28;20494;-87
2023/10/25 01:49:24;;;;;;;1.95;0.40;;;8.30;99.90;;;;;;5024428;28;20025;-88
2023/10/25 01:51:49;;;;;;;0.63;0.25;;;8.30;99.90;;;;;;5033249;28;20029;-88
2023/10/25 01:54:15;;;;;;;0.95;0.30;;;8.30;99.90;;;;;;5021497;28;20040;-87
2023/10/25 01:56:40;;;;;;;0.80;0.30;;;8.30;99.90;;;;;;5008897;28;20398;-88
2023/10/25 01:59:06;;;;;;;1.92;0.50;;;8.20;99.90;;;;;;5024947;28;20045;-87
2023/10/25 02:01:32;;;;;;;1.90;0.30;;;8.30;99.90;;;;;;5037826;28;20150;-87
2023/10/25 02:03:57;;;;;;;1.00;0.30;;;8.30;99.90;;;;;;5007159;28;20037;-84
2023/10/25 02:06:23;;;;;;;2.67;0.30;;;8.30;99.90;;;;;;5039035;28;20033;-87
2023/10/25 02:08:49;;;;;;;1.73;0.30;;;8.30;99.90;;;;;;5010475;28;20116;-87
2023/10/25 02:11:20;;;;;;;1.08;0.30;;;8.20;99.90;;;;;;5004609;28;20025;-86
2023/10/25 02:13:46;;;;;;;1.33;0.28;;;8.20;99.90;;;;;;5022332;28;20064;-90
2023/10/25 02:16:16;;;;;;;1.13;0.30;;;8.20;99.90;;;;;;5024812;28;20080;-89
2023/10/25 02:18:42;;;;;;;1.30;0.32;;;8.20;99.90;;;;;;5026345;28;20038;-89
2023/10/25 02:21:09;;;;;;;1.17;0.30;;;8.20;99.90;;;;;;5025067;28;20026;-88
2023/10/25 02:23:35;;;;;;;1.88;0.28;;;8.20;99.90;;;;;;5007392;28;20028;-87
2023/10/25 02:26:01;;;;;;;2.08;0.30;;;8.10;99.90;;;;;;5021877;28;20068;-86
2023/10/25 02:28:27;;;;;;;2.97;0.30;;;8.10;99.90;;;;;;5007674;28;20018;-88
2023/10/25 02:30:52;;;;;;;1.45;0.30;;;8.10;99.90;;;;;;5030024;28;20486;-88
2023/10/25 02:33:18;;;;;;;1.85;0.30;;;8.10;99.90;;;;;;5006783;28;20393;-88
2023/10/25 02:35:43;;;;;;;1.50;0.30;;;8.00;99.90;;;;;;5005210;28;20434;-87
2023/10/25 02:38:09;;;;;;;2.15;0.40;;;8.00;99.90;;;;;;5024464;28;20030;-86
2023/10/25 02:40:38;;;;;;;2.88;0.50;;;8.00;99.90;;;;;;5024101;28;20018;-86
2023/10/25 02:43:03;;;;;;;1.80;0.30;;;8.00;99.90;;;;;;5038412;28;20037;-87
2023/10/25 02:45:29;;;;;;;1.75;0.40;;;8.00;99.90;;;;;;5013053;28;20071;-87
2023/10/25 02:47:56;;;;;;;1.55;0.35;;;8.00;99.90;;;;;;5024079;28;20109;-88
2023/10/25 02:50:22;;;;;;;2.78;0.30;;;7.90;99.90;;;;;;5025683;28;20037;-87
2023/10/25 02:52:48;;;;;;;1.95;0.47;;;7.90;99.90;;;;;;5030065;28;20033;-89
2023/10/25 02:55:17;;;;;;;2.25;0.40;;;7.90;99.90;;;;;;5044998;28;20053;-90
2023/10/25 02:57:43;;;;;;;1.00;0.40;;;7.90;99.90;;;;;;5025720;28;20026;-87
2023/10/25 03:00:10;;;;;;;1.35;0.30;;;7.90;99.90;;;;;;5022824;28;20041;-91
2023/10/25 03:02:39;;;;;;;2.03;0.40;;;7.90;99.90;;;;;;5042005;28;20087;-88
2023/10/25 03:05:05;;;;;;;1.50;0.47;;;7.90;99.90;;;;;;5008904;28;20041;-87
2023/10/25 03:07:30;;;;;;;1.25;0.35;;;7.90;99.90;;;;;;5025099;28;20036;-87
2023/10/25 03:09:56;;;;;;;2.38;0.50;;;7.90;99.90;;;;;;5025221;28;20033;-86
2023/10/25 03:12:22;;;;;;;2.47;0.47;;;7.90;99.90;;;;;;5026704;28;20067;-87
2023/10/25 03:14:47;;;;;;;1.92;0.40;;;7.90;99.90;;;;;;5024033;28;20032;-86
2023/10/25 03:17:14;;;;;;;1.17;0.30;;;7.80;99.90;;;;;;5028724;28;20429;-86
2023/10/25 03:19:40;;;;;;;1.50;0.40;;;7.90;99.90;;;;;;5028597;28;20025;-90
2023/10/25 03:22:06;;;;;;;2.20;0.50;;;7.90;99.90;;;;;;5024096;28;20033;-88
2023/10/25 03:24:32;;;;;;;2.55;0.50;;;7.90;99.90;;;;;;5023419;28;20041;-89
2023/10/25 03:26:58;;;;;;;0.95;0.40;;;7.80;99.90;;;;;;5038148;28;20478;-86
2023/10/25 03:29:24;;;;;;;1.33;0.40;;;7.80;99.90;;;;;;5011942;28;20026;-87
2023/10/25 03:31:50;;;;;;;2.75;0.50;;;7.90;99.90;;;;;;5011577;28;20444;-87
2023/10/25 03:34:18;;;;;;;1.33;0.40;;;7.80;99.90;;;;;;5042720;28;20473;-87
2023/10/25 03:36:45;;;;;;;0.80;0.25;;;7.80;99.90;;;;;;5028643;28;20036;-86
2023/10/25 03:39:15;;;;;;;1.17;0.40;;;7.80;99.90;;;;;;5012644;28;20077;-88
2023/10/25 03:41:42;;;;;;;1.40;0.30;;;7.80;99.90;;;;;;5026882;28;20124;-88
2023/10/25 03:44:08;;;;;;;1.35;0.30;;;7.70;99.90;;;;;;5025420;28;20184;-88
2023/10/25 03:46:34;;;;;;;1.45;0.40;;;7.70;99.90;;;;;;5006890;28;20128;-91
2023/10/25 03:48:59;;;;;;;1.30;0.43;;;7.80;99.90;;;;;;5042814;28;20028;-89
2023/10/25 03:51:25;;;;;;;2.60;0.40;;;7.70;99.90;;;;;;5026721;28;20040;-88
2023/10/25 03:53:51;;;;;;;2.50;0.38;;;7.80;99.90;;;;;;5027595;28;20049;-87
2023/10/25 03:56:17;;;;;;;1.98;0.40;;;7.80;99.90;;;;;;5012062;28;20041;-87
2023/10/25 03:58:42;;;;;;;1.52;0.63;;;7.70;99.90;;;;;;5023089;28;20046;-86
2023/10/25 04:01:09;;;;;;;3.28;0.47;;;7.80;99.90;;;;;;5038890;28;20047;-87
2023/10/25 04:03:35;;;;;;;0.70;0.30;;;7.70;99.90;;;;;;5023764;28;20041;-87
2023/10/25 04:06:03;;;;;;;1.27;0.40;;;7.70;99.90;;;;;;5023050;28;20038;-86
2023/10/25 04:08:29;;;;;;;1.38;0.40;;;7.60;99.90;;;;;;5040315;28;20099;-87
2023/10/25 04:10:56;;;;;;;1.65;0.30;;;7.60;99.90;;;;;;5011376;28;20486;-87
2023/10/25 04:13:23;;;;;;;1.67;0.40;;;7.60;99.90;;;;;;5023916;28;20026;-88
2023/10/25 04:15:59;;;;;;;0.90;0.35;;;7.60;99.90;;;;;;5026967;28;20043;-87
2023/10/25 04:18:28;;;;;;;1.50;0.40;;;7.60;99.90;;;;;;5009107;28;20051;-87
2023/10/25 04:20:55;;;;;;;1.98;0.40;;;7.50;99.90;;;;;;5025258;28;20025;-87
2023/10/25 04:23:21;;;;;;;1.35;0.40;;;7.40;99.90;;;;;;5011503;28;20030;-87
2023/10/25 04:25:47;;;;;;;1.08;0.40;;;7.40;99.90;;;;;;5010721;28;20511;-87
2023/10/25 04:28:13;;;;;;;1.40;0.40;;;7.40;99.90;;;;;;5024994;28;20042;-87
2023/10/25 04:30:39;;;;;;;1.75;0.32;;;7.30;99.90;;;;;;5021732;28;20034;-89
2023/10/25 04:33:06;;;;;;;1.50;0.38;;;7.30;99.90;;;;;;5022569;28;20053;-87
2023/10/25 04:35:31;;;;;;;1.20;0.93;;;7.30;99.90;;;;;;5027094;28;20028;-87
2023/10/25 04:37:57;;;;;;;0.73;0.30;;;7.20;99.90;;;;;;5010808;28;20136;-87
2023/10/25 04:40:23;;;;;;;0.60;0.30;;;7.30;99.90;;;;;;5040631;28;20032;-87
2023/10/25 04:42:50;;;;;;;1.80;0.20;;;7.20;99.90;;;;;;5011015;28;20060;-86
2023/10/25 04:45:16;;;;;;;2.40;0.30;;;7.30;99.90;;;;;;5022040;28;20437;-87
2023/10/25 04:47:42;;;;;;;3.58;0.30;;;7.30;99.90;;;;;;5024769;28;20461;-88
2023/10/25 04:50:08;;;;;;;0.80;0.30;;;7.40;99.90;;;;;;5008832;28;20032;-91
2023/10/25 04:52:34;;;;;;;0.50;0.20;;;7.50;99.90;;;;;;5026573;28;20047;-88
2023/10/25 04:54:59;;;;;;;1.30;0.30;;;7.50;99.90;;;;;;5006650;28;20478;-88
2023/10/25 04:57:25;;;;;;;1.73;0.30;;;7.50;99.90;;;;;;5033894;28;20038;-88
2023/10/25 04:59:52;;;;;;;1.55;0.30;;;7.50;99.90;;;;;;5006920;28;20022;-92
2023/10/25 05:02:18;;;;;;;0.75;0.30;;;7.60;99.90;;;;;;5022718;28;20120;-92
2023/10/25 05:04:44;;;;;;;1.13;0.30;;;7.60;99.90;;;;;;5010365;28;20163;-91
2023/10/25 05:07:10;;;;;;;0.60;0.30;;;7.60;99.90;;;;;;5005781;28;20053;-87
2023/10/25 05:09:35;;;;;;;0.93;0.30;;;7.70;99.90;;;;;;5025201;28;20060;-91
2023/10/25 05:12:08;;;;;;;0.80;0.30;;;7.60;99.90;;;;;;5007525;28;20041;-89
2023/10/25 05:14:35;;;;;;;1.00;0.60;;;7.80;99.90;;;;;;5021523;28;20017;-88
2023/10/25 05:17:01;;;;;;;0.60;0.20;;;7.70;99.90;;;;;;5038476;28;20060;-87
2023/10/25 05:19:27;;;;;;;1.48;0.20;;;7.80;99.90;;;;;;5023090;28;20028;-91
2023/10/25 05:21:55;;;;;;;1.17;0.22;;;7.90;99.90;;;;;;5026923;28;20053;-86
2023/10/25 05:24:21;;;;;;;0.65;0.20;;;7.80;99.90;;;;;;5025520;28;20488;-86
2023/10/25 05:26:48;;;;;;;1.13;0.30;;;7.80;99.90;;;;;;5007021;28;20037;-87
2023/10/25 05:29:14;;;;;;;0.70;0.30;;;7.90;99.90;;;;;;5006873;28;20321;-89
2023/10/25 05:31:43;;;;;;;0.70;0.22;;;7.90;99.90;;;;;;5023206;28;20037;-88
2023/10/25 05:34:10;;;;;;;1.98;0.30;;;8.00;99.90;;;;;;5026218;28;20222;-90
2023/10/25 05:36:39;;;;;;;2.40;0.20;;;8.00;99.90;;;;;;5037699;28;20103;-87
2023/10/25 05:39:06;;;;;;;1.30;0.20;;;8.00;99.90;;;;;;5022137;28;20091;-89
2023/10/25 05:41:36;;;;;;;1.52;0.30;;;8.00;99.90;;;;;;5024984;28;20029;-88
2023/10/25 05:44:04;;;;;;;;;;;8.00;99.90;;;;;;5038870;28;20052;-89
2023/10/25 05:46:30;;;;;;;2.03;0.30;;;8.10;99.90;;;;;;5033792;28;20369;-89
2023/10/25 05:48:56;;;;;;;1.38;0.70;;;8.20;99.90;;;;;;5006057;28;20026;-92
2023/10/25 05:51:22;;;;;;;0.88;0.30;;;8.20;99.90;;;;;;5023639;28;20034;-91
2023/10/25 05:53:49;;;;;;;3.08;0.30;;;8.20;99.90;;;;;;5024885;28;20339;-91
2023/10/25 05:56:16;;;;;;;0.82;0.20;;;8.20;99.90;;;;;;5039827;28;20175;-88
2023/10/25 05:58:42;;;;;;;2.15;0.40;;;8.30;99.90;;;;;;5005260;28;20022;-88
2023/10/25 06:01:09;;;;;;;1.42;0.30;;;8.30;99.90;;;;;;5027657;28;20487;-87
2023/10/25 06:03:35;;;;;;;1.45;0.30;;;8.30;99.90;;;;;;5007636;28;20049;-87
2023/10/25 06:06:02;;;;;;;0.77;0.30;;;8.30;99.90;;;;;;5023826;28;20151;-90
2023/10/25 06:08:30;;;;;;;1.60;0.30;;;8.30;99.90;;;;;;5020853;28;20034;-92
2023/10/25 06:10:56;;;;;;;0.85;0.30;;;8.30;99.90;;;;;;5040800;28;20030;-91
2023/10/25 06:13:22;;;;;;;1.33;0.30;;;8.30;99.90;;;;;;5029412;28;20465;-89
2023/10/25 06:15:48;;;;;;;1.23;0.30;;;8.30;99.90;;;;;;5010342;28;20037;-88
2023/10/25 06:18:14;;;;;;;2.47;0.35;;;8.30;99.90;;;;;;5028614;28;20125;-87
2023/10/25 06:20:40;;;;;;;1.20;0.40;;;8.40;99.90;;;;;;5043772;28;20030;-87
2023/10/25 06:23:05;;;;;;;1.80;0.40;;;8.40;99.90;;;;;;5026350;28;20028;-86
2023/10/25 06:25:32;;;;;;;1.08;0.30;;;8.40;99.90;;;;;;5043421;28;20068;-87
2023/10/25 06:27:59;;;;;;;0.90;0.30;;;8.40;99.90;;;;;;5026264;28;20022;-87
2023/10/25 06:30:28;;;;;;;0.95;0.30;;;8.50;99.90;;;;;;5008458;28;20168;-89
2023/10/25 06:32:57;;;;;;;0.75;0.30;;;8.50;99.90;;;;;;5028896;28;20547;-86
2023/10/25 06:35:23;;;;;;;1.33;0.40;;;8.50;99.90;;;;;;5012767;28;20045;-90
2023/10/25 06:37:49;;;;;;;1.00;0.40;;;8.50;99.90;;;;;;5009625;28;20351;-88
2023/10/25 06:40:15;;;;;;;0.77;0.30;;;8.60;99.90;;;;;;5026759;28;20037;-87
2023/10/25 06:42:41;;;;;;;1.92;0.60;;;8.60;99.90;;;;;;5010058;28;20028;-87
2023/10/25 06:45:08;;;;;;;1.95;0.40;;;8.70;99.90;;;;;;5009796;28;20041;-87
2023/10/25 06:47:34;;;;;;;2.03;0.40;;;8.70;99.90;;;;;;5040930;28;20032;-87
2023/10/25 06:50:00;;;;;;;0.98;0.40;;;8.70;99.90;;;;;;5028342;28;20025;-88
2023/10/25 06:52:26;;;;;;;1.20;0.32;;;8.70;99.90;;;;;;5043859;28;20071;-86
2023/10/25 06:54:53;;;;;;;1.23;0.40;;;8.70;99.90;;;;;;5028763;28;20385;-88
2023/10/25 06:57:19;;;;;;;1.17;0.40;;;8.70;99.90;;;;;;5011317;28;20099;-88
2023/10/25 06:59:45;;;;;;;1.40;0.40;;;8.70;99.90;;;;;;5029223;28;20060;-87
2023/10/25 07:02:31;;;;;;;1.85;0.40;;;8.80;99.90;;;;;;5021559;28;20034;-89
2023/10/25 07:05:06;;;;;;;0.85;0.30;;;8.80;99.90;;;;;;5023318;28;20112;-87
2023/10/25 07:07:34;;;;;;;0.90;0.30;;;8.90;99.90;;;;;;5026067;28;20033;-88
2023/10/25 07:10:00;;;;;;;1.77;0.35;;;8.90;99.90;;;;;;5025551;28;20040;-89
2023/10/25 07:12:26;;;;;;;2.10;0.40;;;8.90;99.90;;;;;;5023202;28;20033;-89
2023/10/25 07:14:52;;;;;;;1.73;0.40;;;9.00;99.90;;;;;;5027575;28;20075;-88
2023/10/25 07:17:17;;;;;;;2.17;0.50;;;9.00;99.90;;;;;;5008950;28;20090;-87
2023/10/25 07:19:46;;;;;;;1.40;0.57;;;9.10;99.90;;;;;;5027115;28;20061;-88
2023/10/25 07:22:11;;;;;;;1.08;0.40;;;9.20;99.90;;;;;;5024094;28;20331;-86
2023/10/25 07:24:37;;;;;;;2.28;0.43;;;9.20;99.90;;;;;;5007842;28;20452;-88
2023/10/25 07:27:03;;;;;;;1.10;0.40;;;9.30;99.90;;;;;;5025818;28;20048;-86
2023/10/25 07:29:28;;;;;;;1.55;0.40;;;9.30;99.90;;;;;;5025582;28;20037;-86
2023/10/25 07:31:54;;;;;;;1.63;0.38;;;9.30;99.90;;;;;;5040493;28;20029;-86
2023/10/25 07:34:20;;;;;;;1.45;0.40;;;9.40;99.90;;;;;;5004096;28;20025;-90
2023/10/25 07:36:45;;;;;;;0.80;0.35;;;9.50;99.90;;;;;;5015843;28;20453;-88
2023/10/25 07:39:15;;;;;;;1.25;0.70;;;9.50;99.90;;;;;;5016412;28;20029;-88
2023/10/25 07:41:41;;;;;;;2.97;0.60;;;9.50;99.90;;;;;;5017800;28;20037;-91
2023/10/25 07:44:07;;;;;;;3.45;0.70;;;9.50;99.90;;;;;;5011049;28;20053;-87
2023/10/25 07:46:32;;;;;;;1.35;0.40;;;9.60;99.90;;;;;;5032118;28;20412;-86
2023/10/25 07:48:58;;;;;;;1.08;0.50;;;9.60;99.90;;;;;;5033112;28;20071;-87
2023/10/25 07:51:24;;;;;;;1.20;0.40;;;9.60;99.90;;;;;;5042628;28;20040;-87
2023/10/25 07:53:49;;;;;;;3.03;0.40;;;9.60;99.90;;;;;;5025711;28;20512;-87
2023/10/25 07:56:17;;;;;;;1.13;0.40;;;9.60;99.90;;;;;;5029748;28;20183;-89
2023/10/25 07:58:43;;;;;;;1.50;0.40;;;9.60;99.90;;;;;;5025966;28;20024;-87
2023/10/25 08:01:10;;;;;;;0.80;0.30;;;9.70;99.90;;;;;;5022681;28;20143;-86
2023/10/25 08:03:36;;;;;;;0.93;0.30;;;9.70;99.90;;;;;;5023821;28;20057;-89
2023/10/25 08:06:02;;;;;;;0.98;0.30;;;9.70;99.90;;;;;;5021358;28;20159;-88
2023/10/25 08:08:27;;;;;;;0.70;0.30;;;9.70;99.90;;;;;;5027748;28;20115;-90
2023/10/25 08:11:01;;;;;;;2.85;0.47;;;9.70;99.90;;;;;;5010211;28;20033;-90
2023/10/25 08:13:27;;;;;;;1.63;0.40;;;9.70;99.90;;;;;;5028673;28;20099;-92
2023/10/25 08:16:01;;;;;;;1.55;0.38;;;9.70;99.90;;;;;;5021772;28;20044;-89
2023/10/25 08:18:27;;;;;;;3.10;0.50;;;9.70;99.90;;;;;;5026124;28;20032;-92
2023/10/25 08:20:54;;;;;;;3.70;0.40;;;9.70;99.90;;;;;;5022828;28;20030;-93
2023/10/25 08:23:19;;;;;;;1.88;0.30;;;9.80;99.90;;;;;;5018524;28;20480;-94
2023/10/25 08:25:45;;;;;;;1.40;0.50;;;9.80;99.90;;;;;;5024248;28;20046;-91
2023/10/25 08:28:11;;;;;;;2.42;0.40;;;9.70;99.90;;;;;;5019223;28;20185;-90
2023/10/25 08:30:37;;;;;;;1.35;0.43;;;9.80;99.90;;;;;;5013683;28;20397;-88
2023/10/25 08:33:03;;;;;;;1.55;0.50;;;9.80;99.90;;;;;;5021017;28;20269;-91
2023/10/25 08:35:28;;;;;;;1.20;0.50;;;9.80;99.90;;;;;;5027358;28;20041;-93
2023/10/25 08:37:54;;;;;;;1.58;0.50;;;9.80;99.90;;;;;;5036290;28;20390;-89
2023/10/25 08:40:26;;;;;;;3.95;0.60;;;9.80;99.90;;;;;;5039392;28;20030;-89
2023/10/25 08:42:52;;;;;;;1.63;0.40;;;9.90;99.90;;;;;;5026381;28;20047;-89
2023/10/25 08:45:19;;;;;;;1.50;0.50;;;9.90;99.90;;;;;;5010589;28;20130;-91
2023/10/25 08:48:06;;;;;;;1.35;0.40;;;9.90;99.90;;;;;;5024202;28;20139;-89
2023/10/25 08:51:12;;;;;;;;;;;;;;;;;;;;;
2023/10/25 08:58:41;;;;;;;1.67;0.40;;;9.90;99.90;;;;;;4958481;28;20086;-91
2023/10/25 09:01:38;;;;;;;1.53;0.50;;;10.00;99.90;;;;;;4935417;28;20031;-88
2023/10/25 09:04:20;;;;;;;1.98;0.55;;;10.00;99.90;;;;;;4947421;28;20721;-88
2023/10/25 09:07:28;;;;;;;2.85;0.50;;;10.10;99.90;;;;;;4928510;28;20038;-90
2023/10/25 09:10:19;;;;;;;2.20;0.65;;;10.10;99.90;;;;;;4946028;28;20031;-87
2023/10/25 09:12:46;;;;;;;1.87;0.50;;;10.10;99.90;;;;;;4944222;28;20042;-89
2023/10/25 09:15:12;;;;;;;2.70;0.60;;;10.10;99.90;;;;;;4950567;28;20120;-88
2023/10/25 09:17:38;;;;;;;3.33;0.70;;;10.20;99.90;;;;;;4943868;28;20046;-86
2023/10/25 09:20:07;;;;;;;1.55;0.50;;;10.20;99.90;;;;;;4944706;28;20566;-86
2023/10/25 09:22:33;;;;;;;1.67;0.40;;;10.30;99.90;;;;;;4945701;28;20038;-88
2023/10/25 09:25:02;;;;;;;1.92;0.70;;;10.30;99.90;;;;;;4928944;28;20430;-85
2023/10/25 09:27:29;;;;;;;1.65;0.50;;;10.30;99.90;;;;;;4944009;28;20817;-89
2023/10/25 09:30:14;;;;;;;2.58;0.68;;;10.40;99.90;;;;;;4967003;28;20067;-88
2023/10/25 09:32:42;;;;;;;1.48;0.45;;;10.30;99.90;;;;;;5025756;28;20089;-87
2023/10/25 09:35:10;;;;;;;2.85;0.47;;;10.40;99.90;;;;;;5008053;28;20136;-86
2023/10/25 09:37:36;;;;;;;1.42;0.40;;;10.40;99.90;;;;;;5021644;28;20034;-86
2023/10/25 09:40:13;;;;;;;4.22;0.95;;;10.40;99.90;;;;;;5009829;28;20081;-91
2023/10/25 09:42:48;;;;;;;1.88;0.40;;;10.50;99.90;;;;;;5037917;28;20033;-86
2023/10/25 09:45:31;;;;;;;2.67;0.50;;;10.50;99.90;;;;;;5024583;28;20110;-88
2023/10/25 09:51:59;;;;;;;;;;;;;;;;;;;;;
2023/10/25 09:58:24;;;;;;;1.77;0.40;;;10.70;99.90;;;;;;5018055;28;20418;-89
2023/10/25 10:01:08;;;;;;;2.97;0.30;;;10.80;99.90;;;;;;5036177;28;20026;-90
2023/10/25 10:04:09;;;;;;;;;;;;;;;;;;;;;
2023/10/25 10:06:56;;;;;;;1.35;0.32;;;10.80;99.90;;;;;;5005710;28;20049;-91
2023/10/25 10:09:45;;;;;;;1.80;0.50;;;10.80;99.90;;;;;;5038124;28;20033;-90
2023/10/25 10:12:16;;;;;;;2.97;0.50;;;10.80;99.90;;;;;;5008545;28;20037;-91
2023/10/25 10:14:49;;;;;;;2.55;0.50;;;10.80;99.90;;;;;;5038094;28;20053;-89
2023/10/25 10:20:30;;;;;;;1.92;0.28;;;10.80;99.90;;;;;;5001045;28;20071;-88
2023/10/25 10:23:16;;;;;;;;;;;;;;;;;;;;;
2023/10/25 10:25:47;;;;;;;2.72;0.57;;;10.80;99.90;;;;;;5036937;28;20045;-96
2023/10/25 10:28:16;;;;;;;1.55;0.40;;;10.80;99.90;;;;;;5007127;28;20029;-90
2023/10/25 10:30:42;;;;;;;1.70;0.57;;;10.80;99.90;;;;;;5026018;28;20630;-89
2023/10/25 10:33:13;;;;;;;0.75;0.30;;;10.90;99.90;;;;;;5037162;28;20037;-86
2023/10/25 10:35:47;;;;;;;2.75;0.38;;;10.90;99.90;;;;;;5036206;28;20468;-86
2023/10/25 10:38:12;;;;;;;1.88;0.30;;;10.90;99.90;;;;;;5019556;28;20413;-85
2023/10/25 10:40:38;;;;;;;1.30;0.50;;;10.90;99.90;;;;;;5036194;28;20099;-83
2023/10/25 10:43:06;;;;;;;1.45;0.40;;;10.90;99.90;;;;;;5020221;28;20049;-88
2023/10/25 10:45:33;;;;;;;0.80;0.30;;;10.90;99.90;;;;;;5042634;28;20109;-86
2023/10/25 10:48:07;;;;;;;1.77;0.40;;;10.90;99.90;;;;;;5027363;28;20075;-88
2023/10/25 10:50:33;;;;;;;3.05;0.40;;;10.90;99.90;;;;;;5028589;28;20102;-87
2023/10/25 10:53:00;;;;;;;2.13;0.40;;;10.90;99.90;;;;;;5022870;28;20056;-87
2023/10/25 10:55:26;;;;;;;1.08;0.40;;;10.90;99.90;;;;;;5006938;28;20031;-87
2023/10/25 10:57:52;;;;;;;1.75;0.40;;;10.90;99.90;;;;;;5020706;28;20044;-86
2023/10/25 11:00:18;;;;;;;1.25;0.30;;;10.90;99.90;;;;;;5040257;28;20171;-86
2023/10/25 11:02:49;;;;;;;1.00;0.30;;;10.90;99.90;;;;;;5039849;28;20131;-85
2023/10/25 11:05:17;;;;;;;1.20;0.40;;;10.90;99.90;;;;;;5042315;28;20471;-87
2023/10/25 11:07:43;;;;;;;2.95;0.30;;;10.90;99.90;;;;;;5047434;28;20324;-87
2023/10/25 11:10:16;;;;;;;2.83;0.30;;;10.90;99.90;;;;;;5032307;28;20063;-88
2023/10/25 11:12:43;;;;;;;1.00;0.30;;;10.90;99.90;;;;;;5048493;28;20488;-87
2023/10/25 11:15:09;;;;;;;2.38;0.30;;;10.90;99.90;;;;;;5043002;28;20042;-88
2023/10/25 11:17:52;;;;;;;2.70;0.40;;;10.90;99.90;;;;;;5042253;28;20634;-90
2023/10/25 11:20:27;;;;;;;2.58;0.30;;;10.90;99.90;;;;;;5043663;28;20578;-90
2023/10/25 11:23:05;;;;;;;1.05;0.30;;;10.90;99.90;;;;;;5031633;28;20128;-87
2023/10/25 11:25:38;;;;;;;1.42;0.40;;;10.90;99.90;;;;;;5047754;28;20151;-89
2023/10/25 11:28:10;;;;;;;1.15;0.30;;;10.90;99.90;;;;;;5039823;28;21299;-89
2023/10/25 11:30:38;;;;;;;1.42;0.30;;;10.90;99.90;;;;;;5027469;28;20124;-88
2023/10/25 11:33:13;;;;;;;3.42;0.77;;;10.90;99.90;;;;;;5031361;28;20451;-89
2023/10/25 11:36:18;;;;;;;1.60;0.32;;;10.90;99.90;;;;;;4993184;28;20056;-88
2023/10/25 11:38:47;;;;;;;1.33;0.43;;;10.90;99.90;;;;;;5007875;28;20056;-86
2023/10/25 11:45:24;;;;;;;;;;;;;;;;;;;;;
2023/10/25 11:52:26;;;;;;;1.67;0.30;;;11.00;99.90;;;;;;5034577;28;20036;-92
2023/10/25 11:54:58;;;;;;;1.23;0.30;;;11.00;99.90;;;;;;5047734;28;20140;-89
2023/10/25 11:57:29;;;;;;;1.40;0.30;;;11.00;99.90;;;;;;5024374;28;20039;-89
2023/10/25 11:59:58;;;;;;;0.93;0.30;;;11.00;99.90;;;;;;5012119;28;20033;-90
2023/10/25 12:02:29;;;;;;;1.23;0.40;;;11.00;99.90;;;;;;5010138;28;20029;-92
2023/10/25 12:05:41;;;;;;;;;;;;;;;;;;;;;
2023/10/25 12:08:07;;;;;;;1.33;0.38;;;11.00;99.90;;;;;;5043410;28;20042;-86
2023/10/25 12:10:32;;;;;;;1.42;0.40;;;10.90;99.90;;;;;;5030849;28;20036;-87
2023/10/25 12:12:58;;;;;;;2.30;0.40;;;10.90;99.90;;;;;;5040367;28;20653;-88
2023/10/25 12:15:24;;;;;;;1.80;0.30;;;10.90;99.90;;;;;;5030529;28;20396;-87
2023/10/25 12:17:54;;;;;;;2.53;0.38;;;10.90;99.90;;;;;;5029252;28;20033;-88
2023/10/25 12:20:20;;;;;;;1.90;0.30;;;10.90;99.90;;;;;;5014661;28;20452;-87
2023/10/25 12:22:48;;;;;;;0.98;0.30;;;10.90;99.90;;;;;;5024998;28;20099;-88
2023/10/25 12:25:24;;;;;;;1.88;0.32;;;10.90;99.90;;;;;;5030684;28;20508;-87
2023/10/25 12:27:53;;;;;;;0.90;0.28;;;10.90;99.90;;;;;;5029005;28;20036;-86
2023/10/25 12:30:19;;;;;;;2.08;0.40;;;10.90;99.90;;;;;;5047735;28;20025;-87
2023/10/25 12:32:47;;;;;;;1.33;0.25;;;10.80;99.90;;;;;;5029236;28;20025;-87
2023/10/25 12:35:13;;;;;;;1.73;0.35;;;10.80;99.90;;;;;;4986802;28;20068;-87
2023/10/25 12:37:39;;;;;;;1.45;0.30;;;10.80;99.90;;;;;;5011209;28;20037;-85
2023/10/25 12:40:07;;;;;;;1.13;0.30;;;10.80;99.90;;;;;;5024947;28;20028;-87
2023/10/25 12:42:36;;;;;;;1.60;0.30;;;10.80;99.90;;;;;;5024784;28;20053;-88
2023/10/25 12:45:04;;;;;;;1.23;0.20;;;10.80;99.90;;;;;;5045601;28;20475;-89
2023/10/25 12:47:40;;;;;;;2.17;0.20;;;10.80;99.90;;;;;;5039916;28;20820;-87
2023/10/25 12:50:53;;;;;;;;;;;;;;;;;;;;;
2023/10/25 12:53:30;;;;;;;1.02;0.20;;;10.80;99.90;;;;;;5046243;28;20481;-88
2023/10/25 12:55:56;;;;;;;1.48;0.28;;;10.90;99.90;;;;;;5044811;28;20380;-86
2023/10/25 12:59:01;;;;;;;1.33;0.25;;;10.80;99.90;;;;;;5024418;28;20033;-89
2023/10/25 13:01:38;;;;;;;1.50;0.30;;;10.80;99.90;;;;;;5029595;28;20063;-88
2023/10/25 13:04:24;;;;;;;1.15;0.52;;;10.80;99.90;;;;;;5041053;28;20029;-88
2023/10/25 13:10:05;;;;;;;1.73;0.30;;;10.90;99.90;;;;;;5046021;28;20025;-87
2023/10/25 13:12:33;;;;;;;1.25;0.40;;;10.90;99.90;;;;;;5043073;28;20050;-90
2023/10/25 13:14:58;;;;;;;0.95;0.30;;;10.90;99.90;;;;;;5028975;28;20085;-89
2023/10/25 13:17:24;;;;;;;1.30;0.43;;;10.90;99.90;;;;;;5045401;28;20032;-87
2023/10/25 13:19:49;;;;;;;1.35;0.30;;;10.90;99.90;;;;;;5042289;28;21166;-85
2023/10/25 13:22:15;;;;;;;1.42;0.40;;;10.90;99.90;;;;;;5026420;28;20462;-87
2023/10/25 13:24:41;;;;;;;1.08;0.30;;;10.90;99.90;;;;;;5040144;28;20025;-89
2023/10/25 13:27:06;;;;;;;1.35;0.30;;;10.90;99.90;;;;;;5024779;28;20103;-88
2023/10/25 13:29:32;;;;;;;1.52;0.40;;;10.90;99.90;;;;;;5021302;28;20040;-87
2023/10/25 13:31:58;;;;;;;1.25;0.30;;;10.90;99.90;;;;;;5019992;28;20072;-87
2023/10/25 13:34:23;;;;;;;0.90;0.20;;;10.80;99.90;;;;;;5037912;28;20025;-90
2023/10/25 13:36:50;;;;;;;0.88;0.22;;;10.90;99.90;;;;;;5020647;28;20036;-91
2023/10/25 13:39:16;;;;;;;1.02;0.30;;;10.90;99.90;;;;;;5035653;28;20536;-86